sensor_id;sensor_type;location;lat;lon;timestamp;temperature;humidity
9951;DHT22;24074;49.254;6.702;2024-03-07T00:00:25;7.70;99.90
9951;DHT22;24074;49.254;6.702;2024-03-07T00:02:51;7.70;99.90
9951;DHT22;24074;49.254;6.702;2024-03-07T00:05:18;7.70;99.90
9951;DHT22;24074;49.254;6.702;2024-03-07T00:07:44;7.60;99.90
9951;DHT22;24074;49.254;6.702;2024-03-07T00:10:10;7.60;99.90
9951;DHT22;24074;49.254;6.702;2024-03-07T00:12:37;7.60;99.90
9951;DHT22;24074;49.254;6.702;2024-03-07T00:15:06;7.60;99.90
9951;DHT22;24074;49.254;6.702;2024-03-07T00:17:32;7.60;99.90
9951;DHT22;24074;49.254;6.702;2024-03-07T00:19:58;7.50;99.90
9951;DHT22;24074;49.254;6.702;2024-03-07T00:22:24;7.40;99.90
9951;DHT22;24074;49.254;6.702;2024-03-07T00:24:55;7.40;99.90
9951;DHT22;24074;49.254;6.702;2024-03-07T00:27:21;7.40;99.90
9951;DHT22;24074;49.254;6.702;2024-03-07T00:29:49;7.40;99.90
9951;DHT22;24074;49.254;6.702;2024-03-07T00:32:22;7.40;99.90
9951;DHT22;24074;49.254;6.702;2024-03-07T00:34:49;7.40;99.90
9951;DHT22;24074;49.254;6.702;2024-03-07T00:37:15;7.30;99.90
9951;DHT22;24074;49.254;6.702;2024-03-07T00:39:41;7.40;99.90
9951;DHT22;24074;49.254;6.702;2024-03-07T00:42:07;7.30;99.90
9951;DHT22;24074;49.254;6.702;2024-03-07T00:44:33;7.30;99.90
9951;DHT22;24074;49.254;6.702;2024-03-07T00:47:02;7.30;99.90
9951;DHT22;24074;49.254;6.702;2024-03-07T00:49:28;7.40;99.90
9951;DHT22;24074;49.254;6.702;2024-03-07T00:51:54;7.40;99.90
9951;DHT22;24074;49.254;6.702;2024-03-07T00:54:20;7.40;99.90
9951;DHT22;24074;49.254;6.702;2024-03-07T00:56:48;7.40;99.90
9951;DHT22;24074;49.254;6.702;2024-03-07T00:59:15;7.40;99.90
9951;DHT22;24074;49.254;6.702;2024-03-07T01:01:43;7.40;99.90
9951;DHT22;24074;49.254;6.702;2024-03-07T01:04:09;7.40;99.90
9951;DHT22;24074;49.254;6.702;2024-03-07T01:06:37;7.40;99.90
9951;DHT22;24074;49.254;6.702;2024-03-07T01:09:03;7.40;99.90
9951;DHT22;24074;49.254;6.702;2024-03-07T01:11:29;7.40;99.90
9951;DHT22;24074;49.254;6.702;2024-03-07T01:13:55;7.40;99.90
9951;DHT22;24074;49.254;6.702;2024-03-07T01:16:21;7.40;99.90
9951;DHT22;24074;49.254;6.702;2024-03-07T01:18:46;7.40;99.90
9951;DHT22;24074;49.254;6.702;2024-03-07T01:21:12;7.40;99.90
9951;DHT22;24074;49.254;6.702;2024-03-07T01:23:38;7.30;99.90
9951;DHT22;24074;49.254;6.702;2024-03-07T01:26:04;7.30;99.90
9951;DHT22;24074;49.254;6.702;2024-03-07T01:28:30;7.30;99.90
9951;DHT22;24074;49.254;6.702;2024-03-07T01:30:56;7.30;99.90
9951;DHT22;24074;49.254;6.702;2024-03-07T01:33:22;7.30;99.90
9951;DHT22;24074;49.254;6.702;2024-03-07T01:35:48;7.30;99.90
9951;DHT22;24074;49.254;6.702;2024-03-07T01:38:14;7.30;99.90
9951;DHT22;24074;49.254;6.702;2024-03-07T01:40:41;7.20;99.90
9951;DHT22;24074;49.254;6.702;2024-03-07T01:43:07;7.20;99.90
9951;DHT22;24074;49.254;6.702;2024-03-07T01:45:33;7.20;99.90
9951;DHT22;24074;49.254;6.702;2024-03-07T01:47:59;7.10;99.90
9951;DHT22;24074;49.254;6.702;2024-03-07T01:50:25;7.20;99.90
9951;DHT22;24074;49.254;6.702;2024-03-07T01:52:51;7.10;99.90
9951;DHT22;24074;49.254;6.702;2024-03-07T01:55:18;7.10;99.90
9951;DHT22;24074;49.254;6.702;2024-03-07T01:57:44;7.10;99.90
9951;DHT22;24074;49.254;6.702;2024-03-07T02:00:11;7.10;99.90
9951;DHT22;24074;49.254;6.702;2024-03-07T02:02:37;7.10;99.90
9951;DHT22;24074;49.254;6.702;2024-03-07T02:05:03;7.10;99.90
9951;DHT22;24074;49.254;6.702;2024-03-07T02:07:30;7.10;99.90
9951;DHT22;24074;49.254;6.702;2024-03-07T02:10:05;7.00;99.90
9951;DHT22;24074;49.254;6.702;2024-03-07T02:12:31;7.10;99.90
9951;DHT22;24074;49.254;6.702;2024-03-07T02:14:57;7.00;99.90
9951;DHT22;24074;49.254;6.702;2024-03-07T02:17:24;7.00;99.90
9951;DHT22;24074;49.254;6.702;2024-03-07T02:19:50;7.00;99.90
9951;DHT22;24074;49.254;6.702;2024-03-07T02:22:16;7.00;99.90
9951;DHT22;24074;49.254;6.702;2024-03-07T02:24:42;7.00;99.90
9951;DHT22;24074;49.254;6.702;2024-03-07T02:27:07;7.00;99.90
9951;DHT22;24074;49.254;6.702;2024-03-07T02:29:35;6.90;99.90
9951;DHT22;24074;49.254;6.702;2024-03-07T02:32:02;6.90;99.90
9951;DHT22;24074;49.254;6.702;2024-03-07T02:34:28;6.90;99.90
9951;DHT22;24074;49.254;6.702;2024-03-07T02:36:53;6.90;99.90
9951;DHT22;24074;49.254;6.702;2024-03-07T02:39:19;6.90;99.90
9951;DHT22;24074;49.254;6.702;2024-03-07T02:41:46;6.80;99.90
9951;DHT22;24074;49.254;6.702;2024-03-07T02:44:13;6.80;99.90
9951;DHT22;24074;49.254;6.702;2024-03-07T02:46:39;6.80;99.90
9951;DHT22;24074;49.254;6.702;2024-03-07T02:49:05;6.80;99.90
9951;DHT22;24074;49.254;6.702;2024-03-07T02:51:31;6.70;99.90
9951;DHT22;24074;49.254;6.702;2024-03-07T02:53:57;6.70;99.90
9951;DHT22;24074;49.254;6.702;2024-03-07T02:56:23;6.70;99.90
9951;DHT22;24074;49.254;6.702;2024-03-07T02:58:50;6.70;99.90
9951;DHT22;24074;49.254;6.702;2024-03-07T03:01:16;6.60;99.90
9951;DHT22;24074;49.254;6.702;2024-03-07T03:03:42;6.60;99.90
9951;DHT22;24074;49.254;6.702;2024-03-07T03:06:08;6.60;99.90
9951;DHT22;24074;49.254;6.702;2024-03-07T03:08:34;6.60;99.90
9951;DHT22;24074;49.254;6.702;2024-03-07T03:11:00;6.60;99.90
9951;DHT22;24074;49.254;6.702;2024-03-07T03:13:26;6.60;99.90
9951;DHT22;24074;49.254;6.702;2024-03-07T03:15:53;6.50;99.90
9951;DHT22;24074;49.254;6.702;2024-03-07T03:18:21;6.50;99.90
9951;DHT22;24074;49.254;6.702;2024-03-07T03:20:47;6.50;99.90
9951;DHT22;24074;49.254;6.702;2024-03-07T03:23:14;6.40;99.90
9951;DHT22;24074;49.254;6.702;2024-03-07T03:25:40;6.40;99.90
9951;DHT22;24074;49.254;6.702;2024-03-07T03:28:06;6.30;99.90
9951;DHT22;24074;49.254;6.702;2024-03-07T03:30:41;6.20;99.90
9951;DHT22;24074;49.254;6.702;2024-03-07T03:33:07;6.10;99.90
9951;DHT22;24074;49.254;6.702;2024-03-07T03:35:42;5.90;99.90
9951;DHT22;24074;49.254;6.702;2024-03-07T03:38:08;5.80;99.90
9951;DHT22;24074;49.254;6.702;2024-03-07T03:40:34;5.70;99.90
9951;DHT22;24074;49.254;6.702;2024-03-07T03:43:00;5.70;99.90
9951;DHT22;24074;49.254;6.702;2024-03-07T03:45:26;5.60;99.90
9951;DHT22;24074;49.254;6.702;2024-03-07T03:47:52;5.60;99.90
9951;DHT22;24074;49.254;6.702;2024-03-07T03:50:18;5.50;99.90
9951;DHT22;24074;49.254;6.702;2024-03-07T03:52:43;5.60;99.90
9951;DHT22;24074;49.254;6.702;2024-03-07T03:55:12;5.60;99.90
9951;DHT22;24074;49.254;6.702;2024-03-07T03:57:39;5.60;99.90
9951;DHT22;24074;49.254;6.702;2024-03-07T04:00:06;5.50;99.90
9951;DHT22;24074;49.254;6.702;2024-03-07T04:02:45;5.50;99.90
9951;DHT22;24074;49.254;6.702;2024-03-07T04:05:14;5.40;99.90
9951;DHT22;24074;49.254;6.702;2024-03-07T04:07:40;5.40;99.90
9951;DHT22;24074;49.254;6.702;2024-03-07T04:10:10;5.50;99.90
9951;DHT22;24074;49.254;6.702;2024-03-07T04:12:39;5.40;99.90
9951;DHT22;24074;49.254;6.702;2024-03-07T04:15:13;5.40;99.90
9951;DHT22;24074;49.254;6.702;2024-03-07T04:17:41;5.50;99.90
9951;DHT22;24074;49.254;6.702;2024-03-07T04:20:07;5.50;99.90
9951;DHT22;24074;49.254;6.702;2024-03-07T04:22:36;5.50;99.90
9951;DHT22;24074;49.254;6.702;2024-03-07T04:25:05;5.50;99.90
9951;DHT22;24074;49.254;6.702;2024-03-07T04:27:32;5.40;99.90
9951;DHT22;24074;49.254;6.702;2024-03-07T04:29:58;5.40;99.90
9951;DHT22;24074;49.254;6.702;2024-03-07T04:32:23;5.30;99.90
9951;DHT22;24074;49.254;6.702;2024-03-07T04:34:49;5.30;99.90
9951;DHT22;24074;49.254;6.702;2024-03-07T04:37:17;5.30;99.90
9951;DHT22;24074;49.254;6.702;2024-03-07T04:39:42;5.10;99.90
9951;DHT22;24074;49.254;6.702;2024-03-07T04:42:08;5.10;99.90
9951;DHT22;24074;49.254;6.702;2024-03-07T04:44:35;5.00;99.90
9951;DHT22;24074;49.254;6.702;2024-03-07T04:47:03;4.90;99.90
9951;DHT22;24074;49.254;6.702;2024-03-07T04:49:32;5.00;99.90
9951;DHT22;24074;49.254;6.702;2024-03-07T04:51:59;5.00;99.90
9951;DHT22;24074;49.254;6.702;2024-03-07T04:54:26;5.10;99.90
9951;DHT22;24074;49.254;6.702;2024-03-07T04:56:52;5.10;99.90
9951;DHT22;24074;49.254;6.702;2024-03-07T04:59:19;5.10;99.90
9951;DHT22;24074;49.254;6.702;2024-03-07T05:01:47;5.10;99.90
9951;DHT22;24074;49.254;6.702;2024-03-07T05:04:14;5.10;99.90
9951;DHT22;24074;49.254;6.702;2024-03-07T05:06:40;5.10;99.90
9951;DHT22;24074;49.254;6.702;2024-03-07T05:09:08;5.10;99.90
9951;DHT22;24074;49.254;6.702;2024-03-07T05:11:35;5.00;99.90
9951;DHT22;24074;49.254;6.702;2024-03-07T05:14:02;4.90;99.90
9951;DHT22;24074;49.254;6.702;2024-03-07T05:16:29;4.80;99.90
9951;DHT22;24074;49.254;6.702;2024-03-07T05:18:55;4.80;99.90
9951;DHT22;24074;49.254;6.702;2024-03-07T05:21:25;4.80;99.90
9951;DHT22;24074;49.254;6.702;2024-03-07T05:24:05;4.70;99.90
9951;DHT22;24074;49.254;6.702;2024-03-07T05:26:31;4.60;99.90
9951;DHT22;24074;49.254;6.702;2024-03-07T05:29:03;4.60;99.90
9951;DHT22;24074;49.254;6.702;2024-03-07T05:31:37;4.50;99.90
9951;DHT22;24074;49.254;6.702;2024-03-07T05:34:04;4.50;99.90
9951;DHT22;24074;49.254;6.702;2024-03-07T05:36:32;4.40;99.90
9951;DHT22;24074;49.254;6.702;2024-03-07T05:38:58;4.50;99.90
9951;DHT22;24074;49.254;6.702;2024-03-07T05:41:27;4.40;99.90
9951;DHT22;24074;49.254;6.702;2024-03-07T05:43:55;4.40;99.90
9951;DHT22;24074;49.254;6.702;2024-03-07T05:46:22;4.30;99.90
9951;DHT22;24074;49.254;6.702;2024-03-07T05:48:47;4.40;99.90
9951;DHT22;24074;49.254;6.702;2024-03-07T05:51:17;4.40;99.90
9951;DHT22;24074;49.254;6.702;2024-03-07T05:53:43;4.60;99.90
9951;DHT22;24074;49.254;6.702;2024-03-07T05:56:09;4.50;99.90
9951;DHT22;24074;49.254;6.702;2024-03-07T05:58:34;4.50;99.90
9951;DHT22;24074;49.254;6.702;2024-03-07T06:01:00;4.50;99.90
9951;DHT22;24074;49.254;6.702;2024-03-07T06:03:26;4.50;99.90
9951;DHT22;24074;49.254;6.702;2024-03-07T06:05:51;4.50;99.90
9951;DHT22;24074;49.254;6.702;2024-03-07T06:08:19;4.50;99.90
9951;DHT22;24074;49.254;6.702;2024-03-07T06:10:45;4.50;99.90
9951;DHT22;24074;49.254;6.702;2024-03-07T06:13:12;4.50;99.90
9951;DHT22;24074;49.254;6.702;2024-03-07T06:15:38;4.50;99.90
9951;DHT22;24074;49.254;6.702;2024-03-07T06:18:06;4.50;99.90
9951;DHT22;24074;49.254;6.702;2024-03-07T06:20:33;4.40;99.90
9951;DHT22;24074;49.254;6.702;2024-03-07T06:23:01;4.40;99.90
9951;DHT22;24074;49.254;6.702;2024-03-07T06:25:34;4.40;99.90
9951;DHT22;24074;49.254;6.702;2024-03-07T06:28:06;4.50;99.90
9951;DHT22;24074;49.254;6.702;2024-03-07T06:30:43;4.50;99.90
9951;DHT22;24074;49.254;6.702;2024-03-07T06:33:10;4.60;99.90
9951;DHT22;24074;49.254;6.702;2024-03-07T06:35:36;4.70;99.90
9951;DHT22;24074;49.254;6.702;2024-03-07T06:38:05;4.70;99.90
9951;DHT22;24074;49.254;6.702;2024-03-07T06:40:32;4.80;99.90
9951;DHT22;24074;49.254;6.702;2024-03-07T06:42:58;4.90;99.90
9951;DHT22;24074;49.254;6.702;2024-03-07T06:45:24;5.00;99.90
9951;DHT22;24074;49.254;6.702;2024-03-07T06:47:50;5.20;99.90
9951;DHT22;24074;49.254;6.702;2024-03-07T06:50:18;5.30;99.90
9951;DHT22;24074;49.254;6.702;2024-03-07T06:52:46;5.40;99.90
9951;DHT22;24074;49.254;6.702;2024-03-07T06:55:16;5.50;99.90
9951;DHT22;24074;49.254;6.702;2024-03-07T06:57:47;5.60;99.90
9951;DHT22;24074;49.254;6.702;2024-03-07T07:00:16;5.60;99.90
9951;DHT22;24074;49.254;6.702;2024-03-07T07:02:46;5.70;99.90
9951;DHT22;24074;49.254;6.702;2024-03-07T07:05:12;5.90;99.90
9951;DHT22;24074;49.254;6.702;2024-03-07T07:07:38;6.10;99.90
9951;DHT22;24074;49.254;6.702;2024-03-07T07:10:07;6.20;99.90
9951;DHT22;24074;49.254;6.702;2024-03-07T07:12:35;6.10;99.90
9951;DHT22;24074;49.254;6.702;2024-03-07T07:15:01;6.30;99.90
9951;DHT22;24074;49.254;6.702;2024-03-07T07:17:28;6.50;99.90
9951;DHT22;24074;49.254;6.702;2024-03-07T07:19:55;6.70;99.90
9951;DHT22;24074;49.254;6.702;2024-03-07T07:22:25;6.90;99.90
9951;DHT22;24074;49.254;6.702;2024-03-07T07:24:51;6.90;99.90
9951;DHT22;24074;49.254;6.702;2024-03-07T07:27:16;7.20;99.90
9951;DHT22;24074;49.254;6.702;2024-03-07T07:29:44;7.40;99.90
9951;DHT22;24074;49.254;6.702;2024-03-07T07:32:09;8.00;99.90
9951;DHT22;24074;49.254;6.702;2024-03-07T07:34:37;8.90;99.90
9951;DHT22;24074;49.254;6.702;2024-03-07T07:37:04;10.20;99.90
9951;DHT22;24074;49.254;6.702;2024-03-07T07:39:30;11.50;99.90
9951;DHT22;24074;49.254;6.702;2024-03-07T07:41:57;12.40;99.90
9951;DHT22;24074;49.254;6.702;2024-03-07T07:44:25;12.80;99.90
9951;DHT22;24074;49.254;6.702;2024-03-07T07:46:50;12.60;99.90
9951;DHT22;24074;49.254;6.702;2024-03-07T07:49:16;13.80;99.90
9951;DHT22;24074;49.254;6.702;2024-03-07T07:51:42;13.50;99.90
9951;DHT22;24074;49.254;6.702;2024-03-07T07:54:07;13.70;99.90
9951;DHT22;24074;49.254;6.702;2024-03-07T07:56:34;13.40;99.90
9951;DHT22;24074;49.254;6.702;2024-03-07T07:59:01;12.40;99.90
9951;DHT22;24074;49.254;6.702;2024-03-07T08:01:26;13.10;99.90
9951;DHT22;24074;49.254;6.702;2024-03-07T08:03:53;12.30;99.90
9951;DHT22;24074;49.254;6.702;2024-03-07T08:06:21;11.90;99.90
9951;DHT22;24074;49.254;6.702;2024-03-07T08:08:46;11.60;99.90
9951;DHT22;24074;49.254;6.702;2024-03-07T08:11:12;11.00;99.90
9951;DHT22;24074;49.254;6.702;2024-03-07T08:13:40;10.10;99.90
9951;DHT22;24074;49.254;6.702;2024-03-07T08:16:05;9.50;99.90
9951;DHT22;24074;49.254;6.702;2024-03-07T08:18:32;9.10;99.90
9951;DHT22;24074;49.254;6.702;2024-03-07T08:20:57;8.60;99.90
9951;DHT22;24074;49.254;6.702;2024-03-07T08:23:23;10.10;99.90
9951;DHT22;24074;49.254;6.702;2024-03-07T08:25:51;12.10;99.90
9951;DHT22;24074;49.254;6.702;2024-03-07T08:28:17;13.00;99.90
9951;DHT22;24074;49.254;6.702;2024-03-07T08:30:46;12.50;99.90
9951;DHT22;24074;49.254;6.702;2024-03-07T08:33:11;12.70;99.90
9951;DHT22;24074;49.254;6.702;2024-03-07T08:35:38;14.10;99.90
9951;DHT22;24074;49.254;6.702;2024-03-07T08:38:04;15.70;99.90
9951;DHT22;24074;49.254;6.702;2024-03-07T08:40:31;14.50;99.90
9951;DHT22;24074;49.254;6.702;2024-03-07T08:42:58;13.20;99.90
9951;DHT22;24074;49.254;6.702;2024-03-07T08:45:27;13.00;99.90
9951;DHT22;24074;49.254;6.702;2024-03-07T08:47:55;14.40;99.90
9951;DHT22;24074;49.254;6.702;2024-03-07T08:50:22;14.90;99.40
9951;DHT22;24074;49.254;6.702;2024-03-07T08:52:50;15.80;98.20
9951;DHT22;24074;49.254;6.702;2024-03-07T08:55:18;15.10;97.00
9951;DHT22;24074;49.254;6.702;2024-03-07T08:57:44;12.80;98.40
9951;DHT22;24074;49.254;6.702;2024-03-07T09:00:15;11.80;99.90
9951;DHT22;24074;49.254;6.702;2024-03-07T09:02:51;11.50;99.90
9951;DHT22;24074;49.254;6.702;2024-03-07T09:05:21;11.20;99.90
9951;DHT22;24074;49.254;6.702;2024-03-07T09:07:51;10.90;99.90
9951;DHT22;24074;49.254;6.702;2024-03-07T09:10:16;12.20;99.90
9951;DHT22;24074;49.254;6.702;2024-03-07T09:12:43;11.10;99.90
9951;DHT22;24074;49.254;6.702;2024-03-07T09:15:09;11.10;99.90
9951;DHT22;24074;49.254;6.702;2024-03-07T09:17:38;11.00;99.90
9951;DHT22;24074;49.254;6.702;2024-03-07T09:20:05;10.40;99.90
9951;DHT22;24074;49.254;6.702;2024-03-07T09:22:31;10.00;99.90
9951;DHT22;24074;49.254;6.702;2024-03-07T09:24:58;10.10;99.90
9951;DHT22;24074;49.254;6.702;2024-03-07T09:27:23;9.60;99.90
9951;DHT22;24074;49.254;6.702;2024-03-07T09:29:49;12.00;99.90
9951;DHT22;24074;49.254;6.702;2024-03-07T09:32:14;12.90;98.40
9951;DHT22;24074;49.254;6.702;2024-03-07T09:34:40;13.80;97.40
9951;DHT22;24074;49.254;6.702;2024-03-07T09:37:09;13.90;96.10
9951;DHT22;24074;49.254;6.702;2024-03-07T09:39:35;13.50;96.00
9951;DHT22;24074;49.254;6.702;2024-03-07T09:42:07;13.90;95.60
9951;DHT22;24074;49.254;6.702;2024-03-07T09:44:38;13.50;95.10
9951;DHT22;24074;49.254;6.702;2024-03-07T09:47:05;13.50;95.80
9951;DHT22;24074;49.254;6.702;2024-03-07T09:49:33;13.60;95.20
9951;DHT22;24074;49.254;6.702;2024-03-07T09:52:01;13.90;95.10
9951;DHT22;24074;49.254;6.702;2024-03-07T09:54:28;13.10;95.20
9951;DHT22;24074;49.254;6.702;2024-03-07T09:56:57;13.30;96.10
9951;DHT22;24074;49.254;6.702;2024-03-07T09:59:24;14.10;95.70
9951;DHT22;24074;49.254;6.702;2024-03-07T10:01:55;15.30;94.00
9951;DHT22;24074;49.254;6.702;2024-03-07T10:04:31;15.80;91.90
9951;DHT22;24074;49.254;6.702;2024-03-07T10:07:01;15.80;91.00
9951;DHT22;24074;49.254;6.702;2024-03-07T10:09:27;15.80;91.50
9951;DHT22;24074;49.254;6.702;2024-03-07T10:11:58;17.30;89.00
9951;DHT22;24074;49.254;6.702;2024-03-07T10:14:24;17.00;84.50
9951;DHT22;24074;49.254;6.702;2024-03-07T10:16:53;15.30;87.70
9951;DHT22;24074;49.254;6.702;2024-03-07T10:19:19;16.90;88.50
9951;DHT22;24074;49.254;6.702;2024-03-07T10:21:44;18.40;79.70
9951;DHT22;24074;49.254;6.702;2024-03-07T10:24:10;17.30;77.00
9951;DHT22;24074;49.254;6.702;2024-03-07T10:26:39;17.30;79.70
9951;DHT22;24074;49.254;6.702;2024-03-07T10:29:07;17.60;81.30
9951;DHT22;24074;49.254;6.702;2024-03-07T10:31:34;17.70;78.30
9951;DHT22;24074;49.254;6.702;2024-03-07T10:34:04;17.80;79.00
9951;DHT22;24074;49.254;6.702;2024-03-07T10:36:33;17.70;78.80
9951;DHT22;24074;49.254;6.702;2024-03-07T10:38:58;17.20;76.80
9951;DHT22;24074;49.254;6.702;2024-03-07T10:41:46;16.80;77.80
9951;DHT22;24074;49.254;6.702;2024-03-07T10:44:19;17.50;77.50
9951;DHT22;24074;49.254;6.702;2024-03-07T10:46:54;17.30;75.30
9951;DHT22;24074;49.254;6.702;2024-03-07T10:49:21;17.20;74.90
9951;DHT22;24074;49.254;6.702;2024-03-07T10:54:48;15.20;76.30
9951;DHT22;24074;49.254;6.702;2024-03-07T10:57:35;13.90;81.20
9951;DHT22;24074;49.254;6.702;2024-03-07T11:00:04;14.30;83.00
9951;DHT22;24074;49.254;6.702;2024-03-07T11:02:54;16.70;79.80
9951;DHT22;24074;49.254;6.702;2024-03-07T11:05:21;17.10;77.20
9951;DHT22;24074;49.254;6.702;2024-03-07T11:07:50;18.00;71.20
9951;DHT22;24074;49.254;6.702;2024-03-07T11:10:16;18.80;70.30
9951;DHT22;24074;49.254;6.702;2024-03-07T11:12:44;18.00;69.40
9951;DHT22;24074;49.254;6.702;2024-03-07T11:15:12;17.50;70.60
9951;DHT22;24074;49.254;6.702;2024-03-07T11:17:47;16.50;69.90
9951;DHT22;24074;49.254;6.702;2024-03-07T11:20:24;16.60;72.50
9951;DHT22;24074;49.254;6.702;2024-03-07T11:22:50;16.60;72.00
9951;DHT22;24074;49.254;6.702;2024-03-07T11:25:20;17.30;70.40
9951;DHT22;24074;49.254;6.702;2024-03-07T11:27:56;17.60;68.40
9951;DHT22;24074;49.254;6.702;2024-03-07T11:30:25;17.00;69.10
9951;DHT22;24074;49.254;6.702;2024-03-07T11:32:52;17.00;69.30
9951;DHT22;24074;49.254;6.702;2024-03-07T11:35:32;17.50;67.30
9951;DHT22;24074;49.254;6.702;2024-03-07T11:38:01;17.90;66.30
9951;DHT22;24074;49.254;6.702;2024-03-07T11:42:55;15.30;67.80
9951;DHT22;24074;49.254;6.702;2024-03-07T11:45:26;13.70;70.10
9951;DHT22;24074;49.254;6.702;2024-03-07T11:47:53;12.90;72.60
9951;DHT22;24074;49.254;6.702;2024-03-07T11:50:29;11.90;77.70
9951;DHT22;24074;49.254;6.702;2024-03-07T11:53:00;11.20;78.80
9951;DHT22;24074;49.254;6.702;2024-03-07T11:55:26;11.10;82.10
9951;DHT22;24074;49.254;6.702;2024-03-07T11:57:54;11.00;81.70
9951;DHT22;24074;49.254;6.702;2024-03-07T12:00:20;10.60;81.90
9951;DHT22;24074;49.254;6.702;2024-03-07T12:02:49;10.50;84.70
9951;DHT22;24074;49.254;6.702;2024-03-07T12:05:14;10.60;84.60
9951;DHT22;24074;49.254;6.702;2024-03-07T12:07:43;10.60;84.20
9951;DHT22;24074;49.254;6.702;2024-03-07T12:10:09;10.80;85.20
9951;DHT22;24074;49.254;6.702;2024-03-07T12:12:36;10.70;83.70
9951;DHT22;24074;49.254;6.702;2024-03-07T12:15:08;10.70;85.10
9951;DHT22;24074;49.254;6.702;2024-03-07T12:17:46;10.70;84.30
9951;DHT22;24074;49.254;6.702;2024-03-07T12:20:15;10.50;85.70
9951;DHT22;24074;49.254;6.702;2024-03-07T12:22:57;10.70;84.80
9951;DHT22;24074;49.254;6.702;2024-03-07T12:25:22;10.30;84.50
9951;DHT22;24074;49.254;6.702;2024-03-07T12:28:10;10.30;85.30
9951;DHT22;24074;49.254;6.702;2024-03-07T12:30:54;10.30;86.30
9951;DHT22;24074;49.254;6.702;2024-03-07T12:33:24;10.50;86.20
9951;DHT22;24074;49.254;6.702;2024-03-07T12:35:53;10.80;85.20
9951;DHT22;24074;49.254;6.702;2024-03-07T12:38:25;11.20;85.20
9951;DHT22;24074;49.254;6.702;2024-03-07T12:41:03;10.50;83.80
9951;DHT22;24074;49.254;6.702;2024-03-07T12:43:31;10.40;86.30
9951;DHT22;24074;49.254;6.702;2024-03-07T12:45:57;10.50;86.00
9951;DHT22;24074;49.254;6.702;2024-03-07T12:48:24;10.60;84.80
9951;DHT22;24074;49.254;6.702;2024-03-07T12:50:51;10.50;84.50
9951;DHT22;24074;49.254;6.702;2024-03-07T12:53:23;10.40;85.90
9951;DHT22;24074;49.254;6.702;2024-03-07T12:55:51;10.70;84.20
9951;DHT22;24074;49.254;6.702;2024-03-07T12:58:17;10.40;84.50
9951;DHT22;24074;49.254;6.702;2024-03-07T13:00:45;10.40;85.90
9951;DHT22;24074;49.254;6.702;2024-03-07T13:03:11;10.70;84.20
9951;DHT22;24074;49.254;6.702;2024-03-07T13:05:40;10.60;84.30
9951;DHT22;24074;49.254;6.702;2024-03-07T13:08:09;10.50;84.30
9951;DHT22;24074;49.254;6.702;2024-03-07T13:10:44;10.60;85.00
9951;DHT22;24074;49.254;6.702;2024-03-07T13:13:10;10.50;83.70
9951;DHT22;24074;49.254;6.702;2024-03-07T13:15:37;10.30;83.50
9951;DHT22;24074;49.254;6.702;2024-03-07T13:18:06;10.20;84.90
9951;DHT22;24074;49.254;6.702;2024-03-07T13:20:32;10.40;84.40
9951;DHT22;24074;49.254;6.702;2024-03-07T13:23:01;10.50;85.10
9951;DHT22;24074;49.254;6.702;2024-03-07T13:25:27;10.50;85.40
9951;DHT22;24074;49.254;6.702;2024-03-07T13:28:12;10.50;84.60
9951;DHT22;24074;49.254;6.702;2024-03-07T13:30:40;10.40;84.30
9951;DHT22;24074;49.254;6.702;2024-03-07T13:33:06;10.20;84.60
9951;DHT22;24074;49.254;6.702;2024-03-07T13:35:31;10.20;85.70
9951;DHT22;24074;49.254;6.702;2024-03-07T13:37:57;10.30;86.10
9951;DHT22;24074;49.254;6.702;2024-03-07T13:40:24;10.40;84.40
9951;DHT22;24074;49.254;6.702;2024-03-07T13:42:55;10.60;87.40
9951;DHT22;24074;49.254;6.702;2024-03-07T13:45:23;10.50;85.20
9951;DHT22;24074;49.254;6.702;2024-03-07T13:47:49;10.50;83.20
9951;DHT22;24074;49.254;6.702;2024-03-07T13:50:18;10.70;83.20
9951;DHT22;24074;49.254;6.702;2024-03-07T13:52:46;10.80;82.50
9951;DHT22;24074;49.254;6.702;2024-03-07T13:55:32;10.70;84.20
9951;DHT22;24074;49.254;6.702;2024-03-07T13:58:03;10.80;85.80
9951;DHT22;24074;49.254;6.702;2024-03-07T14:09:41;10.70;81.60
9951;DHT22;24074;49.254;6.702;2024-03-07T14:27:34;10.70;81.80
9951;DHT22;24074;49.254;6.702;2024-03-07T14:30:21;10.60;81.30
9951;DHT22;24074;49.254;6.702;2024-03-07T14:32:56;10.70;82.80
9951;DHT22;24074;49.254;6.702;2024-03-07T14:35:28;10.80;83.10
9951;DHT22;24074;49.254;6.702;2024-03-07T14:38:06;10.80;82.30
9951;DHT22;24074;49.254;6.702;2024-03-07T14:40:49;10.80;82.50
9951;DHT22;24074;49.254;6.702;2024-03-07T14:43:17;10.50;83.50
9951;DHT22;24074;49.254;6.702;2024-03-07T14:45:45;10.40;83.20
9951;DHT22;24074;49.254;6.702;2024-03-07T14:48:14;10.40;83.60
9951;DHT22;24074;49.254;6.702;2024-03-07T14:50:42;10.40;84.00
9951;DHT22;24074;49.254;6.702;2024-03-07T14:53:11;10.20;83.50
9951;DHT22;24074;49.254;6.702;2024-03-07T14:55:39;10.20;84.00
9951;DHT22;24074;49.254;6.702;2024-03-07T14:58:05;10.10;82.90
9951;DHT22;24074;49.254;6.702;2024-03-07T15:00:38;10.20;83.10
9951;DHT22;24074;49.254;6.702;2024-03-07T15:03:08;10.10;81.80
9951;DHT22;24074;49.254;6.702;2024-03-07T15:05:34;10.10;80.90
9951;DHT22;24074;49.254;6.702;2024-03-07T15:08:00;10.20;81.90
9951;DHT22;24074;49.254;6.702;2024-03-07T15:10:30;10.10;81.00
9951;DHT22;24074;49.254;6.702;2024-03-07T15:12:57;10.00;81.70
9951;DHT22;24074;49.254;6.702;2024-03-07T15:15:22;10.10;82.70
9951;DHT22;24074;49.254;6.702;2024-03-07T15:17:54;10.20;83.20
9951;DHT22;24074;49.254;6.702;2024-03-07T15:20:23;10.20;82.20
9951;DHT22;24074;49.254;6.702;2024-03-07T15:22:54;10.10;84.00
9951;DHT22;24074;49.254;6.702;2024-03-07T15:25:23;10.10;85.10
9951;DHT22;24074;49.254;6.702;2024-03-07T15:27:53;10.10;85.00
9951;DHT22;24074;49.254;6.702;2024-03-07T15:30:22;10.20;85.10
9951;DHT22;24074;49.254;6.702;2024-03-07T15:32:51;10.20;84.10
9951;DHT22;24074;49.254;6.702;2024-03-07T15:35:17;10.00;85.00
9951;DHT22;24074;49.254;6.702;2024-03-07T15:37:48;10.20;85.30
9951;DHT22;24074;49.254;6.702;2024-03-07T15:40:16;10.10;85.10
9951;DHT22;24074;49.254;6.702;2024-03-07T15:42:46;10.20;85.10
9951;DHT22;24074;49.254;6.702;2024-03-07T15:45:15;10.10;85.00
9951;DHT22;24074;49.254;6.702;2024-03-07T15:47:45;10.00;84.90
9951;DHT22;24074;49.254;6.702;2024-03-07T15:50:11;10.00;85.40
9951;DHT22;24074;49.254;6.702;2024-03-07T15:52:41;10.00;86.00
9951;DHT22;24074;49.254;6.702;2024-03-07T15:55:10;10.00;85.70
9951;DHT22;24074;49.254;6.702;2024-03-07T15:57:53;9.90;87.00
9951;DHT22;24074;49.254;6.702;2024-03-07T16:00:26;9.80;87.70
9951;DHT22;24074;49.254;6.702;2024-03-07T16:03:03;9.90;88.30
9951;DHT22;24074;49.254;6.702;2024-03-07T16:05:32;9.80;87.30
9951;DHT22;24074;49.254;6.702;2024-03-07T16:08:00;9.70;87.70
9951;DHT22;24074;49.254;6.702;2024-03-07T16:10:29;9.70;88.70
9951;DHT22;24074;49.254;6.702;2024-03-07T16:12:57;9.80;89.30
9951;DHT22;24074;49.254;6.702;2024-03-07T16:15:23;9.80;89.70
9951;DHT22;24074;49.254;6.702;2024-03-07T16:17:52;9.60;88.50
9951;DHT22;24074;49.254;6.702;2024-03-07T16:20:22;9.40;90.00
9951;DHT22;24074;49.254;6.702;2024-03-07T16:22:47;9.30;90.20
9951;DHT22;24074;49.254;6.702;2024-03-07T16:25:17;9.10;89.50
9951;DHT22;24074;49.254;6.702;2024-03-07T16:27:44;9.00;90.00
9951;DHT22;24074;49.254;6.702;2024-03-07T16:30:15;8.90;90.40